sensor_id;sensor_type;location;lat;lon;timestamp;P1;durP1;ratioP1;P2;durP2;ratioP2
69417;SDS011;56610;48.872;2.400;2022-12-29T00:01:49;2.63;;;0.70;;
69417;SDS011;56610;48.872;2.400;2022-12-29T00:04:15;1.70;;;0.60;;
69417;SDS011;56610;48.872;2.400;2022-12-29T00:06:41;1.35;;;0.80;;
69417;SDS011;56610;48.872;2.400;2022-12-29T00:09:07;1.97;;;0.90;;
69417;SDS011;56610;48.872;2.400;2022-12-29T00:11:35;2.08;;;0.80;;
69417;SDS011;56610;48.872;2.400;2022-12-29T00:14:00;3.78;;;0.85;;
69417;SDS011;56610;48.872;2.400;2022-12-29T00:16:45;2.20;;;0.93;;
69417;SDS011;56610;48.872;2.400;2022-12-29T00:19:11;2.33;;;0.90;;
69417;SDS011;56610;48.872;2.400;2022-12-29T00:21:56;2.92;;;0.98;;
69417;SDS011;56610;48.872;2.400;2022-12-29T00:24:41;3.75;;;1.15;;
69417;SDS011;56610;48.872;2.400;2022-12-29T00:27:26;2.38;;;0.90;;
69417;SDS011;56610;48.872;2.400;2022-12-29T00:30:14;3.88;;;1.27;;
69417;SDS011;56610;48.872;2.400;2022-12-29T00:33:13;3.00;;;1.08;;
69417;SDS011;56610;48.872;2.400;2022-12-29T00:38:40;5.13;;;1.23;;
69417;SDS011;56610;48.872;2.400;2022-12-29T00:41:28;3.03;;;1.17;;
69417;SDS011;56610;48.872;2.400;2022-12-29T00:44:13;3.22;;;1.20;;
69417;SDS011;56610;48.872;2.400;2022-12-29T00:46:41;4.60;;;1.50;;
69417;SDS011;56610;48.872;2.400;2022-12-29T00:49:08;4.78;;;1.08;;
69417;SDS011;56610;48.872;2.400;2022-12-29T00:51:55;3.97;;;0.98;;
69417;SDS011;56610;48.872;2.400;2022-12-29T00:54:26;3.47;;;1.55;;
69417;SDS011;56610;48.872;2.400;2022-12-29T00:56:53;4.53;;;1.50;;
69417;SDS011;56610;48.872;2.400;2022-12-29T00:59:19;4.40;;;1.27;;
69417;SDS011;56610;48.872;2.400;2022-12-29T01:01:45;4.18;;;1.35;;
69417;SDS011;56610;48.872;2.400;2022-12-29T01:04:11;2.95;;;1.42;;
69417;SDS011;56610;48.872;2.400;2022-12-29T01:06:38;4.32;;;1.10;;
69417;SDS011;56610;48.872;2.400;2022-12-29T01:09:05;3.97;;;1.35;;
69417;SDS011;56610;48.872;2.400;2022-12-29T01:11:50;3.15;;;1.10;;
69417;SDS011;56610;48.872;2.400;2022-12-29T01:14:16;4.80;;;1.40;;
69417;SDS011;56610;48.872;2.400;2022-12-29T01:16:43;4.13;;;1.33;;
69417;SDS011;56610;48.872;2.400;2022-12-29T01:19:09;3.03;;;1.55;;
69417;SDS011;56610;48.872;2.400;2022-12-29T01:21:35;2.15;;;1.02;;
69417;SDS011;56610;48.872;2.400;2022-12-29T01:24:00;2.22;;;1.27;;
69417;SDS011;56610;48.872;2.400;2022-12-29T01:26:26;3.33;;;1.20;;
69417;SDS011;56610;48.872;2.400;2022-12-29T01:28:52;5.70;;;1.30;;
69417;SDS011;56610;48.872;2.400;2022-12-29T01:31:17;4.05;;;1.55;;
69417;SDS011;56610;48.872;2.400;2022-12-29T01:33:43;3.95;;;1.30;;
69417;SDS011;56610;48.872;2.400;2022-12-29T01:36:10;4.65;;;1.17;;
69417;SDS011;56610;48.872;2.400;2022-12-29T01:38:40;5.07;;;1.40;;
69417;SDS011;56610;48.872;2.400;2022-12-29T01:41:06;3.25;;;1.25;;
69417;SDS011;56610;48.872;2.400;2022-12-29T01:46:11;4.00;;;1.23;;
69417;SDS011;56610;48.872;2.400;2022-12-29T01:48:46;3.33;;;1.30;;
69417;SDS011;56610;48.872;2.400;2022-12-29T01:51:14;2.47;;;0.93;;
69417;SDS011;56610;48.872;2.400;2022-12-29T01:53:40;3.00;;;1.00;;
69417;SDS011;56610;48.872;2.400;2022-12-29T01:56:07;3.10;;;1.10;;
69417;SDS011;56610;48.872;2.400;2022-12-29T01:58:39;3.83;;;0.95;;
69417;SDS011;56610;48.872;2.400;2022-12-29T02:01:06;0.88;;;0.50;;
69417;SDS011;56610;48.872;2.400;2022-12-29T02:03:32;1.05;;;0.50;;
69417;SDS011;56610;48.872;2.400;2022-12-29T02:06:02;2.63;;;0.87;;
69417;SDS011;56610;48.872;2.400;2022-12-29T02:08:38;1.33;;;0.60;;
69417;SDS011;56610;48.872;2.400;2022-12-29T02:11:04;1.38;;;0.50;;
69417;SDS011;56610;48.872;2.400;2022-12-29T02:13:30;1.75;;;0.70;;
69417;SDS011;56610;48.872;2.400;2022-12-29T02:32:50;1.08;;;0.40;;
69417;SDS011;56610;48.872;2.400;2022-12-29T02:35:27;1.92;;;0.43;;
69417;SDS011;56610;48.872;2.400;2022-12-29T02:38:07;0.93;;;0.50;;
69417;SDS011;56610;48.872;2.400;2022-12-29T02:40:48;2.47;;;0.75;;
69417;SDS011;56610;48.872;2.400;2022-12-29T02:51:02;5.40;;;0.75;;
69417;SDS011;56610;48.872;2.400;2022-12-29T02:53:32;2.67;;;0.77;;
69417;SDS011;56610;48.872;2.400;2022-12-29T02:56:19;3.65;;;0.70;;
69417;SDS011;56610;48.872;2.400;2022-12-29T02:58:45;5.32;;;0.70;;
69417;SDS011;56610;48.872;2.400;2022-12-29T03:04:05;3.47;;;0.82;;
69417;SDS011;56610;48.872;2.400;2022-12-29T03:15:24;2.17;;;1.17;;
69417;SDS011;56610;48.872;2.400;2022-12-29T03:18:25;3.42;;;1.20;;
69417;SDS011;56610;48.872;2.400;2022-12-29T03:21:06;5.93;;;1.75;;
69417;SDS011;56610;48.872;2.400;2022-12-29T03:24:13;3.70;;;1.50;;
69417;SDS011;56610;48.872;2.400;2022-12-29T03:26:42;4.03;;;1.25;;
69417;SDS011;56610;48.872;2.400;2022-12-29T03:29:10;5.07;;;1.38;;
69417;SDS011;56610;48.872;2.400;2022-12-29T03:31:37;3.13;;;1.08;;
69417;SDS011;56610;48.872;2.400;2022-12-29T03:34:04;4.68;;;1.00;;
69417;SDS011;56610;48.872;2.400;2022-12-29T03:36:33;3.17;;;0.90;;
69417;SDS011;56610;48.872;2.400;2022-12-29T03:39:10;3.00;;;0.82;;
69417;SDS011;56610;48.872;2.400;2022-12-29T03:41:39;4.00;;;1.02;;
69417;SDS011;56610;48.872;2.400;2022-12-29T03:44:07;4.03;;;0.70;;
69417;SDS011;56610;48.872;2.400;2022-12-29T03:46:33;4.07;;;0.85;;
69417;SDS011;56610;48.872;2.400;2022-12-29T03:48:59;3.72;;;1.15;;
69417;SDS011;56610;48.872;2.400;2022-12-29T03:51:25;4.47;;;1.02;;
69417;SDS011;56610;48.872;2.400;2022-12-29T03:53:50;2.95;;;0.93;;
69417;SDS011;56610;48.872;2.400;2022-12-29T03:56:16;3.15;;;1.17;;
69417;SDS011;56610;48.872;2.400;2022-12-29T03:58:41;3.83;;;0.93;;
69417;SDS011;56610;48.872;2.400;2022-12-29T04:01:07;5.18;;;1.15;;
69417;SDS011;56610;48.872;2.400;2022-12-29T04:03:33;3.72;;;1.00;;
69417;SDS011;56610;48.872;2.400;2022-12-29T04:05:58;3.97;;;1.05;;
69417;SDS011;56610;48.872;2.400;2022-12-29T04:08:24;3.33;;;0.80;;
69417;SDS011;56610;48.872;2.400;2022-12-29T04:10:50;6.65;;;1.27;;
69417;SDS011;56610;48.872;2.400;2022-12-29T04:13:15;5.10;;;1.38;;
69417;SDS011;56610;48.872;2.400;2022-12-29T04:15:45;4.22;;;1.30;;
69417;SDS011;56610;48.872;2.400;2022-12-29T04:18:11;4.32;;;0.90;;
69417;SDS011;56610;48.872;2.400;2022-12-29T04:20:37;3.88;;;1.02;;
69417;SDS011;56610;48.872;2.400;2022-12-29T04:23:21;4.88;;;0.90;;
69417;SDS011;56610;48.872;2.400;2022-12-29T04:25:47;4.32;;;1.10;;
69417;SDS011;56610;48.872;2.400;2022-12-29T04:28:13;4.38;;;0.93;;
69417;SDS011;56610;48.872;2.400;2022-12-29T04:30:39;4.00;;;1.10;;
69417;SDS011;56610;48.872;2.400;2022-12-29T04:33:05;2.83;;;1.10;;
69417;SDS011;56610;48.872;2.400;2022-12-29T04:35:31;4.18;;;1.00;;
69417;SDS011;56610;48.872;2.400;2022-12-29T04:37:57;5.63;;;0.93;;
69417;SDS011;56610;48.872;2.400;2022-12-29T04:40:22;3.83;;;0.90;;
69417;SDS011;56610;48.872;2.400;2022-12-29T04:42:48;2.10;;;0.77;;
69417;SDS011;56610;48.872;2.400;2022-12-29T04:45:14;4.63;;;1.33;;
69417;SDS011;56610;48.872;2.400;2022-12-29T04:47:40;3.28;;;0.82;;
69417;SDS011;56610;48.872;2.400;2022-12-29T04:50:06;4.13;;;1.10;;
69417;SDS011;56610;48.872;2.400;2022-12-29T04:52:32;4.20;;;0.98;;
69417;SDS011;56610;48.872;2.400;2022-12-29T04:54:58;3.70;;;1.30;;
69417;SDS011;56610;48.872;2.400;2022-12-29T04:57:23;4.20;;;1.10;;
69417;SDS011;56610;48.872;2.400;2022-12-29T04:59:49;2.78;;;0.90;;
69417;SDS011;56610;48.872;2.400;2022-12-29T05:02:15;5.20;;;1.95;;
69417;SDS011;56610;48.872;2.400;2022-12-29T05:04:41;4.43;;;1.20;;
69417;SDS011;56610;48.872;2.400;2022-12-29T05:07:07;3.78;;;1.00;;
69417;SDS011;56610;48.872;2.400;2022-12-29T05:09:32;7.95;;;1.48;;
69417;SDS011;56610;48.872;2.400;2022-12-29T05:11:58;3.03;;;0.88;;
69417;SDS011;56610;48.872;2.400;2022-12-29T05:14:23;3.35;;;0.90;;
69417;SDS011;56610;48.872;2.400;2022-12-29T05:16:49;3.35;;;0.73;;
69417;SDS011;56610;48.872;2.400;2022-12-29T05:19:15;5.22;;;1.25;;
69417;SDS011;56610;48.872;2.400;2022-12-29T05:21:41;2.65;;;1.00;;
69417;SDS011;56610;48.872;2.400;2022-12-29T05:24:07;5.10;;;1.00;;
69417;SDS011;56610;48.872;2.400;2022-12-29T05:26:33;4.30;;;1.17;;
69417;SDS011;56610;48.872;2.400;2022-12-29T05:28:58;3.70;;;1.33;;
69417;SDS011;56610;48.872;2.400;2022-12-29T05:31:24;5.88;;;1.23;;
69417;SDS011;56610;48.872;2.400;2022-12-29T05:33:50;4.50;;;1.38;;
69417;SDS011;56610;48.872;2.400;2022-12-29T05:36:16;4.93;;;1.40;;
69417;SDS011;56610;48.872;2.400;2022-12-29T05:38:41;5.75;;;1.45;;
69417;SDS011;56610;48.872;2.400;2022-12-29T05:41:07;7.60;;;1.60;;
69417;SDS011;56610;48.872;2.400;2022-12-29T05:43:33;7.50;;;1.75;;
69417;SDS011;56610;48.872;2.400;2022-12-29T05:45:58;5.78;;;1.30;;
69417;SDS011;56610;48.872;2.400;2022-12-29T05:48:24;5.10;;;1.48;;
69417;SDS011;56610;48.872;2.400;2022-12-29T05:50:50;7.28;;;1.30;;
69417;SDS011;56610;48.872;2.400;2022-12-29T05:53:16;6.88;;;1.75;;
69417;SDS011;56610;48.872;2.400;2022-12-29T05:55:42;7.45;;;1.65;;
69417;SDS011;56610;48.872;2.400;2022-12-29T05:58:08;7.38;;;1.83;;
69417;SDS011;56610;48.872;2.400;2022-12-29T06:00:34;6.05;;;1.88;;
69417;SDS011;56610;48.872;2.400;2022-12-29T06:03:00;6.15;;;2.05;;
69417;SDS011;56610;48.872;2.400;2022-12-29T06:05:25;6.05;;;1.55;;
69417;SDS011;56610;48.872;2.400;2022-12-29T06:07:51;8.48;;;1.58;;
69417;SDS011;56610;48.872;2.400;2022-12-29T06:10:17;6.95;;;2.00;;
69417;SDS011;56610;48.872;2.400;2022-12-29T06:12:42;7.80;;;1.90;;
69417;SDS011;56610;48.872;2.400;2022-12-29T06:15:08;7.78;;;1.80;;
69417;SDS011;56610;48.872;2.400;2022-12-29T06:17:34;7.55;;;1.80;;
69417;SDS011;56610;48.872;2.400;2022-12-29T06:20:00;7.28;;;1.80;;
69417;SDS011;56610;48.872;2.400;2022-12-29T06:22:26;8.32;;;1.88;;
69417;SDS011;56610;48.872;2.400;2022-12-29T06:24:51;8.23;;;1.80;;
69417;SDS011;56610;48.872;2.400;2022-12-29T06:27:17;6.32;;;1.60;;
69417;SDS011;56610;48.872;2.400;2022-12-29T06:29:42;6.10;;;1.60;;
69417;SDS011;56610;48.872;2.400;2022-12-29T06:32:08;8.13;;;1.75;;
69417;SDS011;56610;48.872;2.400;2022-12-29T06:34:34;8.25;;;1.80;;
69417;SDS011;56610;48.872;2.400;2022-12-29T06:37:00;4.70;;;1.45;;
69417;SDS011;56610;48.872;2.400;2022-12-29T06:39:26;8.60;;;1.90;;
69417;SDS011;56610;48.872;2.400;2022-12-29T06:41:52;7.30;;;1.70;;
69417;SDS011;56610;48.872;2.400;2022-12-29T06:44:18;7.75;;;1.70;;
69417;SDS011;56610;48.872;2.400;2022-12-29T06:46:45;11.75;;;2.03;;
69417;SDS011;56610;48.872;2.400;2022-12-29T06:49:10;8.57;;;1.98;;
69417;SDS011;56610;48.872;2.400;2022-12-29T06:51:36;7.57;;;2.10;;
69417;SDS011;56610;48.872;2.400;2022-12-29T06:54:02;7.43;;;1.52;;
69417;SDS011;56610;48.872;2.400;2022-12-29T06:56:27;5.80;;;1.63;;
69417;SDS011;56610;48.872;2.400;2022-12-29T06:58:53;6.30;;;1.80;;
69417;SDS011;56610;48.872;2.400;2022-12-29T07:01:18;10.25;;;2.28;;
69417;SDS011;56610;48.872;2.400;2022-12-29T07:03:44;7.55;;;1.85;;
69417;SDS011;56610;48.872;2.400;2022-12-29T07:06:09;7.32;;;2.20;;
69417;SDS011;56610;48.872;2.400;2022-12-29T07:08:35;8.10;;;1.90;;
69417;SDS011;56610;48.872;2.400;2022-12-29T07:11:01;7.47;;;2.03;;
69417;SDS011;56610;48.872;2.400;2022-12-29T07:13:26;9.13;;;2.13;;
69417;SDS011;56610;48.872;2.400;2022-12-29T07:15:52;6.53;;;1.33;;
69417;SDS011;56610;48.872;2.400;2022-12-29T07:18:17;5.90;;;1.73;;
69417;SDS011;56610;48.872;2.400;2022-12-29T07:20:43;4.80;;;1.42;;
69417;SDS011;56610;48.872;2.400;2022-12-29T07:23:09;8.63;;;1.88;;
69417;SDS011;56610;48.872;2.400;2022-12-29T07:25:34;7.15;;;1.70;;
69417;SDS011;56610;48.872;2.400;2022-12-29T07:28:01;6.97;;;1.83;;
69417;SDS011;56610;48.872;2.400;2022-12-29T07:30:27;9.13;;;2.00;;
69417;SDS011;56610;48.872;2.400;2022-12-29T07:32:52;6.60;;;1.65;;
69417;SDS011;56610;48.872;2.400;2022-12-29T07:35:18;5.85;;;1.65;;
69417;SDS011;56610;48.872;2.400;2022-12-29T07:37:44;4.82;;;1.38;;
69417;SDS011;56610;48.872;2.400;2022-12-29T07:40:09;5.13;;;1.60;;
69417;SDS011;56610;48.872;2.400;2022-12-29T07:42:36;9.25;;;2.05;;
69417;SDS011;56610;48.872;2.400;2022-12-29T07:45:01;7.00;;;1.95;;
69417;SDS011;56610;48.872;2.400;2022-12-29T07:47:27;8.18;;;2.40;;
69417;SDS011;56610;48.872;2.400;2022-12-29T07:49:53;9.02;;;2.05;;
69417;SDS011;56610;48.872;2.400;2022-12-29T07:52:18;6.93;;;1.48;;
69417;SDS011;56610;48.872;2.400;2022-12-29T07:54:44;8.75;;;1.92;;
69417;SDS011;56610;48.872;2.400;2022-12-29T07:57:10;7.57;;;1.88;;
69417;SDS011;56610;48.872;2.400;2022-12-29T07:59:35;7.75;;;1.70;;
69417;SDS011;56610;48.872;2.400;2022-12-29T08:02:01;4.95;;;1.50;;
69417;SDS011;56610;48.872;2.400;2022-12-29T08:04:26;9.00;;;1.95;;
69417;SDS011;56610;48.872;2.400;2022-12-29T08:06:52;7.38;;;1.88;;
69417;SDS011;56610;48.872;2.400;2022-12-29T08:09:18;5.75;;;1.88;;
69417;SDS011;56610;48.872;2.400;2022-12-29T08:11:43;6.97;;;2.00;;
69417;SDS011;56610;48.872;2.400;2022-12-29T08:14:10;8.02;;;2.30;;
69417;SDS011;56610;48.872;2.400;2022-12-29T08:16:35;11.25;;;2.40;;
69417;SDS011;56610;48.872;2.400;2022-12-29T08:19:01;7.63;;;2.38;;
69417;SDS011;56610;48.872;2.400;2022-12-29T08:21:28;10.93;;;2.85;;
69417;SDS011;56610;48.872;2.400;2022-12-29T08:23:54;7.70;;;2.35;;
69417;SDS011;56610;48.872;2.400;2022-12-29T08:26:20;11.10;;;2.65;;
69417;SDS011;56610;48.872;2.400;2022-12-29T08:28:46;6.82;;;2.10;;
69417;SDS011;56610;48.872;2.400;2022-12-29T08:31:11;10.52;;;2.72;;
69417;SDS011;56610;48.872;2.400;2022-12-29T08:33:37;8.43;;;2.00;;
69417;SDS011;56610;48.872;2.400;2022-12-29T08:36:03;7.80;;;2.22;;
69417;SDS011;56610;48.872;2.400;2022-12-29T08:38:31;8.43;;;2.55;;
69417;SDS011;56610;48.872;2.400;2022-12-29T08:40:57;7.88;;;2.30;;
69417;SDS011;56610;48.872;2.400;2022-12-29T08:43:23;7.60;;;2.55;;
69417;SDS011;56610;48.872;2.400;2022-12-29T08:45:49;9.15;;;2.58;;
69417;SDS011;56610;48.872;2.400;2022-12-29T08:48:15;9.70;;;2.25;;
69417;SDS011;56610;48.872;2.400;2022-12-29T08:50:44;8.27;;;1.92;;
69417;SDS011;56610;48.872;2.400;2022-12-29T08:53:11;11.63;;;2.60;;
69417;SDS011;56610;48.872;2.400;2022-12-29T08:55:37;10.05;;;2.25;;
69417;SDS011;56610;48.872;2.400;2022-12-29T08:58:02;13.20;;;2.67;;
69417;SDS011;56610;48.872;2.400;2022-12-29T09:00:28;12.50;;;2.60;;
69417;SDS011;56610;48.872;2.400;2022-12-29T09:02:53;12.23;;;2.50;;
69417;SDS011;56610;48.872;2.400;2022-12-29T09:05:19;9.00;;;2.28;;
69417;SDS011;56610;48.872;2.400;2022-12-29T09:07:44;8.25;;;2.47;;
69417;SDS011;56610;48.872;2.400;2022-12-29T09:10:10;9.55;;;2.22;;
69417;SDS011;56610;48.872;2.400;2022-12-29T09:12:36;11.60;;;2.97;;
69417;SDS011;56610;48.872;2.400;2022-12-29T09:15:01;11.40;;;2.42;;
69417;SDS011;56610;48.872;2.400;2022-12-29T09:17:27;14.60;;;3.03;;
69417;SDS011;56610;48.872;2.400;2022-12-29T09:20:12;11.02;;;3.15;;
69417;SDS011;56610;48.872;2.400;2022-12-29T09:22:40;12.70;;;2.58;;
69417;SDS011;56610;48.872;2.400;2022-12-29T09:25:07;9.13;;;2.13;;
69417;SDS011;56610;48.872;2.400;2022-12-29T09:27:34;10.40;;;2.47;;
69417;SDS011;56610;48.872;2.400;2022-12-29T09:29:59;10.75;;;2.45;;
69417;SDS011;56610;48.872;2.400;2022-12-29T09:32:25;11.50;;;2.97;;
69417;SDS011;56610;48.872;2.400;2022-12-29T09:34:50;11.00;;;2.85;;
69417;SDS011;56610;48.872;2.400;2022-12-29T09:37:16;11.38;;;2.53;;
69417;SDS011;56610;48.872;2.400;2022-12-29T09:39:42;11.52;;;2.50;;
69417;SDS011;56610;48.872;2.400;2022-12-29T09:42:08;10.63;;;2.53;;
69417;SDS011;56610;48.872;2.400;2022-12-29T09:47:36;9.13;;;2.30;;
69417;SDS011;56610;48.872;2.400;2022-12-29T09:50:04;10.88;;;2.65;;
69417;SDS011;56610;48.872;2.400;2022-12-29T09:52:43;10.05;;;2.83;;
69417;SDS011;56610;48.872;2.400;2022-12-29T09:55:21;10.73;;;2.72;;
69417;SDS011;56610;48.872;2.400;2022-12-29T09:58:05;10.48;;;2.50;;
69417;SDS011;56610;48.872;2.400;2022-12-29T10:01:23;10.48;;;2.50;;
69417;SDS011;56610;48.872;2.400;2022-12-29T10:04:00;10.60;;;2.80;;
69417;SDS011;56610;48.872;2.400;2022-12-29T10:09:15;12.07;;;2.85;;
69417;SDS011;56610;48.872;2.400;2022-12-29T10:25:37;9.43;;;2.92;;
69417;SDS011;56610;48.872;2.400;2022-12-29T10:28:15;10.13;;;2.53;;
69417;SDS011;56610;48.872;2.400;2022-12-29T10:30:48;10.43;;;2.72;;
69417;SDS011;56610;48.872;2.400;2022-12-29T10:36:39;11.70;;;2.63;;
69417;SDS011;56610;48.872;2.400;2022-12-29T10:41:51;9.90;;;2.58;;
69417;SDS011;56610;48.872;2.400;2022-12-29T10:44:25;9.20;;;2.97;;
69417;SDS011;56610;48.872;2.400;2022-12-29T10:46:56;14.18;;;3.03;;
69417;SDS011;56610;48.872;2.400;2022-12-29T10:49:26;15.38;;;2.95;;
69417;SDS011;56610;48.872;2.400;2022-12-29T10:51:54;11.23;;;2.67;;
69417;SDS011;56610;48.872;2.400;2022-12-29T10:54:32;12.88;;;3.05;;
69417;SDS011;56610;48.872;2.400;2022-12-29T10:57:05;11.77;;;2.78;;
69417;SDS011;56610;48.872;2.400;2022-12-29T10:59:36;11.40;;;3.30;;
69417;SDS011;56610;48.872;2.400;2022-12-29T11:05:22;12.65;;;3.22;;
69417;SDS011;56610;48.872;2.400;2022-12-29T11:07:35;8.95;;;2.80;;
69417;SDS011;56610;48.872;2.400;2022-12-29T11:13:12;8.00;;;2.95;;
69417;SDS011;56610;48.872;2.400;2022-12-29T11:15:46;12.68;;;2.90;;
69417;SDS011;56610;48.872;2.400;2022-12-29T11:18:17;11.52;;;2.70;;
69417;SDS011;56610;48.872;2.400;2022-12-29T11:20:45;11.25;;;2.88;;
69417;SDS011;56610;48.872;2.400;2022-12-29T11:23:21;12.18;;;2.80;;
69417;SDS011;56610;48.872;2.400;2022-12-29T11:28:46;12.02;;;3.25;;
69417;SDS011;56610;48.872;2.400;2022-12-29T11:31:30;11.98;;;3.00;;
69417;SDS011;56610;48.872;2.400;2022-12-29T11:34:05;9.80;;;2.83;;
69417;SDS011;56610;48.872;2.400;2022-12-29T11:36:32;7.78;;;2.70;;
69417;SDS011;56610;48.872;2.400;2022-12-29T11:38:59;11.82;;;3.22;;
69417;SDS011;56610;48.872;2.400;2022-12-29T11:41:26;11.00;;;2.63;;
69417;SDS011;56610;48.872;2.400;2022-12-29T11:43:58;13.65;;;3.22;;
69417;SDS011;56610;48.872;2.400;2022-12-29T11:46:28;11.65;;;3.00;;
69417;SDS011;56610;48.872;2.400;2022-12-29T11:48:56;9.57;;;2.83;;
69417;SDS011;56610;48.872;2.400;2022-12-29T11:51:37;8.90;;;2.85;;
69417;SDS011;56610;48.872;2.400;2022-12-29T11:54:09;10.45;;;3.00;;
69417;SDS011;56610;48.872;2.400;2022-12-29T11:56:52;9.52;;;2.85;;
69417;SDS011;56610;48.872;2.400;2022-12-29T12:01:59;8.93;;;2.65;;
69417;SDS011;56610;48.872;2.400;2022-12-29T12:04:36;8.65;;;2.78;;
69417;SDS011;56610;48.872;2.400;2022-12-29T12:07:17;9.03;;;3.00;;
69417;SDS011;56610;48.872;2.400;2022-12-29T12:10:23;11.25;;;3.03;;
69417;SDS011;56610;48.872;2.400;2022-12-29T12:12:51;10.95;;;3.55;;
69417;SDS011;56610;48.872;2.400;2022-12-29T12:15:31;11.32;;;2.88;;
69417;SDS011;56610;48.872;2.400;2022-12-29T12:23:13;11.05;;;2.80;;
69417;SDS011;56610;48.872;2.400;2022-12-29T12:25:56;11.20;;;2.95;;
69417;SDS011;56610;48.872;2.400;2022-12-29T12:30:57;8.75;;;2.42;;
69417;SDS011;56610;48.872;2.400;2022-12-29T12:33:33;11.07;;;2.97;;
69417;SDS011;56610;48.872;2.400;2022-12-29T12:38:44;8.30;;;2.40;;
69417;SDS011;56610;48.872;2.400;2022-12-29T12:44:01;10.30;;;3.00;;
69417;SDS011;56610;48.872;2.400;2022-12-29T13:06:50;12.27;;;2.97;;
69417;SDS011;56610;48.872;2.400;2022-12-29T13:21:07;10.10;;;2.60;;
69417;SDS011;56610;48.872;2.400;2022-12-29T13:23:52;10.98;;;2.40;;
69417;SDS011;56610;48.872;2.400;2022-12-29T13:29:12;9.77;;;2.80;;
69417;SDS011;56610;48.872;2.400;2022-12-29T13:31:47;9.10;;;2.22;;
69417;SDS011;56610;48.872;2.400;2022-12-29T13:34:52;10.63;;;2.50;;
69417;SDS011;56610;48.872;2.400;2022-12-29T13:37:37;7.40;;;2.08;;
69417;SDS011;56610;48.872;2.400;2022-12-29T13:40:14;10.70;;;2.93;;
69417;SDS011;56610;48.872;2.400;2022-12-29T13:42:43;10.88;;;2.60;;
69417;SDS011;56610;48.872;2.400;2022-12-29T13:45:11;11.10;;;2.50;;
69417;SDS011;56610;48.872;2.400;2022-12-29T13:47:46;11.27;;;2.72;;
69417;SDS011;56610;48.872;2.400;2022-12-29T13:50:19;11.25;;;2.83;;
69417;SDS011;56610;48.872;2.400;2022-12-29T13:55:44;11.10;;;2.95;;
69417;SDS011;56610;48.872;2.400;2022-12-29T13:58:44;11.48;;;2.88;;
69417;SDS011;56610;48.872;2.400;2022-12-29T14:01:20;10.48;;;2.60;;
69417;SDS011;56610;48.872;2.400;2022-12-29T14:03:59;10.57;;;3.53;;
69417;SDS011;56610;48.872;2.400;2022-12-29T14:06:31;10.50;;;2.70;;
69417;SDS011;56610;48.872;2.400;2022-12-29T14:09:03;11.90;;;2.53;;
69417;SDS011;56610;48.872;2.400;2022-12-29T14:13:58;10.05;;;2.88;;
69417;SDS011;56610;48.872;2.400;2022-12-29T14:16:34;9.85;;;2.58;;
69417;SDS011;56610;48.872;2.400;2022-12-29T14:19:23;11.93;;;2.63;;
69417;SDS011;56610;48.872;2.400;2022-12-29T14:22:04;10.30;;;2.65;;
69417;SDS011;56610;48.872;2.400;2022-12-29T14:34:49;7.57;;;2.53;;
69417;SDS011;56610;48.872;2.400;2022-12-29T14:40:25;5.82;;;2.38;;
69417;SDS011;56610;48.872;2.400;2022-12-29T14:42:48;7.10;;;2.35;;
69417;SDS011;56610;48.872;2.400;2022-12-29T14:47:48;6.18;;;2.13;;
69417;SDS011;56610;48.872;2.400;2022-12-29T14:50:22;9.40;;;2.58;;
69417;SDS011;56610;48.872;2.400;2022-12-29T14:53:03;8.77;;;2.78;;
69417;SDS011;56610;48.872;2.400;2022-12-29T14:58:17;8.65;;;2.83;;
69417;SDS011;56610;48.872;2.400;2022-12-29T15:00:47;9.13;;;2.47;;
69417;SDS011;56610;48.872;2.400;2022-12-29T15:05:45;10.00;;;2.50;;
69417;SDS011;56610;48.872;2.400;2022-12-29T15:08:16;7.65;;;2.67;;
69417;SDS011;56610;48.872;2.400;2022-12-29T15:11:06;9.90;;;2.72;;
69417;SDS011;56610;48.872;2.400;2022-12-29T15:13:41;9.77;;;3.38;;
69417;SDS011;56610;48.872;2.400;2022-12-29T15:16:24;9.88;;;2.83;;
69417;SDS011;56610;48.872;2.400;2022-12-29T15:18:58;6.88;;;2.45;;
69417;SDS011;56610;48.872;2.400;2022-12-29T15:21:29;7.47;;;2.60;;
69417;SDS011;56610;48.872;2.400;2022-12-29T15:23:56;7.43;;;2.47;;
69417;SDS011;56610;48.872;2.400;2022-12-29T15:26:22;7.43;;;2.40;;
69417;SDS011;56610;48.872;2.400;2022-12-29T15:29:00;7.47;;;2.40;;
69417;SDS011;56610;48.872;2.400;2022-12-29T15:31:26;8.65;;;2.47;;
69417;SDS011;56610;48.872;2.400;2022-12-29T15:33:54;8.02;;;2.13;;
69417;SDS011;56610;48.872;2.400;2022-12-29T15:36:28;9.27;;;2.78;;
69417;SDS011;56610;48.872;2.400;2022-12-29T15:38:54;8.48;;;2.30;;
69417;SDS011;56610;48.872;2.400;2022-12-29T15:41:36;9.18;;;2.70;;
69417;SDS011;56610;48.872;2.400;2022-12-29T15:44:28;8.00;;;2.42;;
69417;SDS011;56610;48.872;2.400;2022-12-29T15:46:55;9.75;;;2.40;;
69417;SDS011;56610;48.872;2.400;2022-12-29T15:49:21;8.23;;;2.50;;
69417;SDS011;56610;48.872;2.400;2022-12-29T15:51:48;8.20;;;2.40;;
69417;SDS011;56610;48.872;2.400;2022-12-29T15:54:19;8.70;;;2.38;;
69417;SDS011;56610;48.872;2.400;2022-12-29T15:56:46;8.98;;;2.65;;
69417;SDS011;56610;48.872;2.400;2022-12-29T15:59:26;8.23;;;2.63;;
69417;SDS011;56610;48.872;2.400;2022-12-29T16:01:54;7.63;;;2.25;;
69417;SDS011;56610;48.872;2.400;2022-12-29T16:04:20;8.18;;;2.22;;
69417;SDS011;56610;48.872;2.400;2022-12-29T16:09:32;10.52;;;2.58;;
69417;SDS011;56610;48.872;2.400;2022-12-29T16:12:17;7.25;;;2.10;;
69417;SDS011;56610;48.872;2.400;2022-12-29T16:15:06;7.65;;;2.63;;
69417;SDS011;56610;48.872;2.400;2022-12-29T16:17:42;5.70;;;2.00;;
69417;SDS011;56610;48.872;2.400;2022-12-29T16:20:17;7.57;;;2.47;;
69417;SDS011;56610;48.872;2.400;2022-12-29T16:22:49;10.88;;;3.08;;
69417;SDS011;56610;48.872;2.400;2022-12-29T16:25:19;8.43;;;2.78;;
69417;SDS011;56610;48.872;2.400;2022-12-29T16:27:48;7.78;;;2.30;;
69417;SDS011;56610;48.872;2.400;2022-12-29T16:30:20;8.32;;;2.38;;
69417;SDS011;56610;48.872;2.400;2022-12-29T16:32:50;8.52;;;2.70;;
69417;SDS011;56610;48.872;2.400;2022-12-29T16:35:22;10.63;;;2.80;;
69417;SDS011;56610;48.872;2.400;2022-12-29T16:38:12;8.57;;;2.80;;
69417;SDS011;56610;48.872;2.400;2022-12-29T16:41:00;9.27;;;2.50;;
69417;SDS011;56610;48.872;2.400;2022-12-29T16:43:31;8.20;;;2.53;;
69417;SDS011;56610;48.872;2.400;2022-12-29T16:46:21;5.68;;;2.10;;
69417;SDS011;56610;48.872;2.400;2022-12-29T16:48:52;8.13;;;2.53;;
69417;SDS011;56610;48.872;2.400;2022-12-29T16:51:28;8.20;;;2.22;;
69417;SDS011;56610;48.872;2.400;2022-12-29T16:53:55;7.60;;;2.80;;
69417;SDS011;56610;48.872;2.400;2022-12-29T16:56:23;6.47;;;2.10;;
69417;SDS011;56610;48.872;2.400;2022-12-29T16:58:53;7.20;;;2.50;;
69417;SDS011;56610;48.872;2.400;2022-12-29T17:01:29;8.25;;;2.90;;
69417;SDS011;56610;48.872;2.400;2022-12-29T17:03:57;7.30;;;2.30;;
69417;SDS011;56610;48.872;2.400;2022-12-29T17:06:25;9.30;;;2.60;;
69417;SDS011;56610;48.872;2.400;2022-12-29T17:08:50;11.43;;;3.00;;
69417;SDS011;56610;48.872;2.400;2022-12-29T17:11:27;7.63;;;2.58;;
69417;SDS011;56610;48.872;2.400;2022-12-29T17:16:57;8.25;;;2.55;;
69417;SDS011;56610;48.872;2.400;2022-12-29T17:19:28;8.80;;;2.72;;
69417;SDS011;56610;48.872;2.400;2022-12-29T17:21:59;9.77;;;2.80;;
69417;SDS011;56610;48.872;2.400;2022-12-29T17:24:25;8.75;;;2.63;;
69417;SDS011;56610;48.872;2.400;2022-12-29T17:26:55;8.45;;;2.65;;
69417;SDS011;56610;48.872;2.400;2022-12-29T17:32:00;9.82;;;2.90;;
69417;SDS011;56610;48.872;2.400;2022-12-29T17:36:54;8.45;;;2.67;;
69417;SDS011;56610;48.872;2.400;2022-12-29T17:39:19;9.68;;;2.88;;
69417;SDS011;56610;48.872;2.400;2022-12-29T17:41:45;6.05;;;2.33;;
69417;SDS011;56610;48.872;2.400;2022-12-29T17:44:20;9.15;;;2.97;;
69417;SDS011;56610;48.872;2.400;2022-12-29T17:46:47;11.88;;;3.33;;
69417;SDS011;56610;48.872;2.400;2022-12-29T17:49:14;11.40;;;2.63;;